New Corn Hill, Texas
Current Conditions -  °F | °C
As of 8:48 AM on Thursday 18 Dec 2014 (Local Time) from KGTU Reporting Station
Moderate Fog Moderate Fog  
Wind Chill: 50°   Ceiling: 300
Heat Index: 50°   Visibility: 1mi
Dew Point: 48°   Wind: 0mph
Humidity: 94%   Direction: NA
Pressure: 30.12"   Gusts: NA
Location:  30.7535°N, 97.5973°W
Report Text: KGTU 181448Z 00000KT 1SM FG OVC003 10/09 A3012
Loading
Personal Weather Stations






























Interactive Weather Map New forecast layout! Learn more

10-Day Weather Forecast

Advertisements
Track Severe Weather on mobile